Terminal Aerodrome Forecast
Issued by NWS Cleveland, OH

Home | Current Version | Previous Version | Text Only | Print | Product List | Glossary On
Versions: 1 2 3 4 5 6 7 8 9 10 11 12 13 14 15 16 17 18 19 20 21 22 23 24 25 26 27
000
FTUS41 KCLE 241731
TAFERI
TAF
KERI 241731Z 2418/2518 28011KT P6SM OVC120
     FM250500 01007KT P6SM OVC060
     FM250900 04012G20KT P6SM SCT025 BKN050
     FM251200 04012G20KT P6SM BKN100=

USA.gov is the U.S. government's official web portal to all federal, state and local government web resources and services.